Time;durP1;ratioP1;P1;durP2;ratioP2;P2;SDS_P1;SDS_P2;PMS_P1;PMS_P2;Temp;Humidity;BMP_temperature;BMP_pressure;BME280_temperature;BME280_humidity;BME280_pressure;Samples;Min_cycle;Max_cycle;Signal;HPM_P1;HPM_P2
2022/11/25 00:00:37;;;;;;;11.87;5.23;;;6.50;99.90;;;;;;4122988;28;20455;-76
2022/11/25 00:02:43;;;;;;;9.63;4.63;;;6.50;99.90;;;;;;4133989;28;20487;-77
2022/11/25 00:04:49;;;;;;;12.10;5.30;;;6.50;99.90;;;;;;4124813;28;20489;-76
2022/11/25 00:06:51;;;;;;;11.60;5.50;;;6.40;99.90;;;;;;4128026;28;20548;-76
2022/11/25 00:08:58;;;;;;;14.27;5.47;;;6.40;99.90;;;;;;4106991;28;20998;-76
2022/11/25 00:11:00;;;;;;;12.30;4.80;;;6.40;99.90;;;;;;4126258;28;20459;-77
2022/11/25 00:13:02;;;;;;;11.87;4.87;;;6.40;99.90;;;;;;4128016;28;20482;-77
2022/11/25 00:15:05;;;;;;;14.23;5.27;;;6.30;99.90;;;;;;4130606;28;20469;-77
2022/11/25 00:17:07;;;;;;;10.13;4.80;;;6.30;99.90;;;;;;4133010;28;20446;-76
2022/11/25 00:19:10;;;;;;;8.87;5.63;;;6.30;99.90;;;;;;4134076;28;20456;-75
2022/11/25 00:21:15;;;;;;;12.50;4.93;;;6.30;99.90;;;;;;4130492;28;20452;-76
2022/11/25 00:23:17;;;;;;;11.97;5.50;;;6.20;99.90;;;;;;4127638;28;21091;-75
2022/11/25 00:25:19;;;;;;;14.07;6.00;;;6.20;99.90;;;;;;4130941;28;20521;-76
2022/11/25 00:27:21;;;;;;;11.13;5.40;;;6.20;99.90;;;;;;4129345;28;20467;-76
2022/11/25 00:29:23;;;;;;;13.80;5.27;;;6.10;99.90;;;;;;4135550;28;20495;-75
2022/11/25 00:31:27;;;;;;;12.17;5.57;;;6.10;99.90;;;;;;4135715;28;20448;-76
2022/11/25 00:33:29;;;;;;;12.50;5.83;;;6.10;99.90;;;;;;4127146;28;21011;-75
2022/11/25 00:35:31;;;;;;;15.47;5.90;;;6.10;99.90;;;;;;4131264;28;20963;-76
2022/11/25 00:37:34;;;;;;;11.83;5.63;;;6.00;99.90;;;;;;4135133;28;20462;-76
2022/11/25 00:39:36;;;;;;;15.57;6.40;;;6.00;99.90;;;;;;4132536;28;20496;-76
2022/11/25 00:46:19;;;;;;;13.50;5.90;;;5.90;99.90;;;;;;4122628;28;20504;-76
2022/11/25 00:48:21;;;;;;;11.70;5.83;;;5.90;99.90;;;;;;4132652;28;20454;-76
2022/11/25 00:50:23;;;;;;;10.57;5.07;;;5.90;99.90;;;;;;4128575;28;20892;-76
2022/11/25 00:52:26;;;;;;;11.70;5.43;;;5.90;99.90;;;;;;4127468;28;20986;-76
2022/11/25 00:54:30;;;;;;;14.40;6.23;;;5.80;99.90;;;;;;4128946;28;20477;-75
2022/11/25 00:56:32;;;;;;;12.77;5.90;;;5.80;99.90;;;;;;4131926;28;20513;-76
2022/11/25 00:58:34;;;;;;;16.27;6.10;;;5.80;99.90;;;;;;4127010;28;20464;-76
2022/11/25 01:00:36;;;;;;;14.83;5.93;;;5.70;99.90;;;;;;4128030;28;20461;-77
2022/11/25 01:02:38;;;;;;;14.90;6.30;;;5.70;99.90;;;;;;4131446;28;20476;-76
2022/11/25 01:04:40;;;;;;;14.73;6.23;;;5.60;99.90;;;;;;4131504;28;20467;-76
2022/11/25 01:06:42;;;;;;;11.40;5.77;;;5.60;99.90;;;;;;4134504;28;20460;-77
2022/11/25 01:08:45;;;;;;;12.50;6.23;;;5.60;99.90;;;;;;4131827;28;20476;-76
2022/11/25 01:10:48;;;;;;;10.90;5.20;;;5.60;99.90;;;;;;4124692;28;20571;-77
2022/11/25 01:12:50;;;;;;;11.33;5.63;;;5.60;99.90;;;;;;4137697;28;20475;-77
2022/11/25 01:14:52;;;;;;;10.73;5.13;;;5.50;99.90;;;;;;4132116;28;20472;-76
2022/11/25 01:16:54;;;;;;;9.70;5.30;;;5.50;99.90;;;;;;4134214;28;20499;-77
2022/11/25 01:18:56;;;;;;;10.90;5.13;;;5.50;99.90;;;;;;4132547;28;20508;-76
2022/11/25 01:21:06;;;;;;;9.93;5.47;;;5.40;99.90;;;;;;4136197;28;20453;-76
2022/11/25 01:23:08;;;;;;;14.27;5.07;;;5.40;99.90;;;;;;4116576;28;20475;-76
2022/11/25 01:25:09;;;;;;;12.27;4.80;;;5.30;99.90;;;;;;4132425;28;20464;-75
2022/11/25 01:27:13;;;;;;;9.60;5.10;;;5.30;99.90;;;;;;4119840;28;20507;-76
2022/11/25 01:29:17;;;;;;;10.53;5.80;;;5.30;99.90;;;;;;4138099;28;20515;-76
2022/11/25 01:31:23;;;;;;;18.17;6.40;;;5.20;99.90;;;;;;4136196;28;20465;-77
2022/11/25 01:33:25;;;;;;;12.83;5.30;;;5.20;99.90;;;;;;4127237;28;20484;-76
2022/11/25 01:35:27;;;;;;;13.57;5.60;;;5.20;99.90;;;;;;4132784;28;20455;-77
2022/11/25 01:37:29;;;;;;;11.30;5.40;;;5.20;99.90;;;;;;4135082;28;20491;-76
2022/11/25 01:39:31;;;;;;;10.37;5.33;;;5.10;99.90;;;;;;4136282;28;20477;-77
2022/11/25 01:41:34;;;;;;;13.10;5.60;;;5.10;99.90;;;;;;4136644;28;20461;-76
2022/11/25 01:43:38;;;;;;;14.87;6.20;;;5.10;99.90;;;;;;4132620;28;20475;-75
2022/11/25 01:45:40;;;;;;;13.60;5.53;;;5.00;99.90;;;;;;4133397;28;20895;-76
2022/11/25 01:47:43;;;;;;;17.20;6.87;;;5.00;99.90;;;;;;4137832;28;20491;-76
2022/11/25 01:49:49;;;;;;;12.47;5.87;;;5.00;99.90;;;;;;4136890;28;20498;-76
2022/11/25 01:51:56;;;;;;;13.00;6.07;;;5.10;99.90;;;;;;4133003;28;20514;-76
2022/11/25 01:54:03;;;;;;;15.57;6.50;;;4.90;99.90;;;;;;4133749;28;20468;-76
2022/11/25 01:56:06;;;;;;;11.83;5.47;;;5.00;99.90;;;;;;4130030;28;20580;-76
2022/11/25 01:58:11;;;;;;;13.23;6.40;;;4.90;99.90;;;;;;4129611;28;21001;-76
2022/11/25 02:00:15;;;;;;;12.67;6.07;;;4.90;99.90;;;;;;4129600;28;20524;-76
2022/11/25 02:02:18;;;;;;;12.17;6.17;;;4.80;99.90;;;;;;4130599;28;20901;-76
2022/11/25 02:04:24;;;;;;;13.93;6.00;;;4.80;99.90;;;;;;4129279;28;20473;-75
2022/11/25 02:06:29;;;;;;;16.53;6.10;;;4.80;99.90;;;;;;4132894;28;20490;-75
2022/11/25 02:08:32;;;;;;;13.67;6.50;;;4.80;99.90;;;;;;4129190;28;20504;-76
2022/11/25 02:10:35;;;;;;;12.57;5.90;;;4.80;99.90;;;;;;4130346;28;20556;-75
2022/11/25 02:12:40;;;;;;;12.20;5.20;;;4.80;99.90;;;;;;4132161;28;20491;-77
2022/11/25 02:14:42;;;;;;;9.87;5.50;;;4.70;99.90;;;;;;4129867;28;20974;-76
2022/11/25 02:16:46;;;;;;;10.47;5.93;;;4.70;99.90;;;;;;4129120;28;20463;-76
2022/11/25 02:18:49;;;;;;;14.90;6.57;;;4.70;99.90;;;;;;4128253;28;20481;-76
2022/11/25 02:20:51;;;;;;;14.50;6.10;;;4.70;99.90;;;;;;4126170;28;20461;-76
2022/11/25 02:23:01;;;;;;;13.47;5.63;;;4.70;99.90;;;;;;4129518;28;20493;-77
2022/11/25 02:25:14;;;;;;;13.67;5.53;;;4.60;99.90;;;;;;4129693;28;20523;-75
2022/11/25 02:27:16;;;;;;;12.80;6.17;;;4.60;99.90;;;;;;4129300;28;20479;-76
2022/11/25 02:29:18;;;;;;;11.23;5.53;;;4.60;99.90;;;;;;4125126;28;20520;-76
2022/11/25 02:31:21;;;;;;;13.20;5.83;;;4.60;99.90;;;;;;4126374;28;20487;-76
2022/11/25 02:33:26;;;;;;;21.10;6.03;;;4.50;99.90;;;;;;4128723;28;20496;-76
2022/11/25 02:35:31;;;;;;;16.87;6.60;;;4.40;99.90;;;;;;4130341;28;20482;-76
2022/11/25 02:37:33;;;;;;;13.63;5.67;;;4.40;99.90;;;;;;4123872;28;20463;-76
2022/11/25 02:39:38;;;;;;;12.87;5.90;;;4.40;99.90;;;;;;4122788;28;20968;-77
2022/11/25 02:41:45;;;;;;;12.93;5.50;;;4.40;99.90;;;;;;4130444;28;20554;-77
2022/11/25 02:43:47;;;;;;;15.43;5.90;;;4.40;99.90;;;;;;4128247;28;20488;-76
2022/11/25 02:45:54;;;;;;;13.30;5.90;;;4.30;99.90;;;;;;4126962;28;20510;-76
2022/11/25 02:47:56;;;;;;;15.20;6.33;;;4.30;99.90;;;;;;4127743;28;20511;-76
2022/11/25 02:49:58;;;;;;;14.30;5.97;;;4.30;99.90;;;;;;4108195;28;20577;-76
2022/11/25 02:52:00;;;;;;;13.80;5.70;;;4.30;99.90;;;;;;4128443;28;20519;-76
2022/11/25 02:54:02;;;;;;;9.73;5.27;;;4.20;99.90;;;;;;4120308;28;20459;-75
2022/11/25 02:56:05;;;;;;;11.23;5.77;;;4.20;99.90;;;;;;4114762;28;20453;-76
2022/11/25 02:58:11;;;;;;;13.10;6.07;;;4.20;99.90;;;;;;4128709;28;20467;-77
2022/11/25 03:00:14;;;;;;;9.50;5.00;;;4.20;99.90;;;;;;4128254;28;20955;-75
2022/11/25 03:02:16;;;;;;;12.30;5.37;;;4.20;99.90;;;;;;4135014;28;21127;-76
2022/11/25 03:04:18;;;;;;;9.33;5.00;;;4.20;99.90;;;;;;4110426;28;21351;-75
2022/11/25 03:06:20;;;;;;;9.10;4.80;;;4.10;99.90;;;;;;4110061;28;20463;-75
2022/11/25 03:08:22;;;;;;;11.30;4.83;;;4.10;99.90;;;;;;4127675;28;20455;-75
2022/11/25 03:10:25;;;;;;;11.30;4.83;;;4.10;99.90;;;;;;4113916;28;20477;-75
2022/11/25 03:12:27;;;;;;;14.10;5.83;;;4.10;99.90;;;;;;4111970;28;20478;-75
2022/11/25 03:14:31;;;;;;;11.73;5.43;;;4.10;99.90;;;;;;4123799;28;20801;-75
2022/11/25 03:16:33;;;;;;;11.60;5.40;;;4.10;99.90;;;;;;4129775;28;21017;-75
2022/11/25 03:18:35;;;;;;;9.73;4.67;;;4.00;99.90;;;;;;4121753;28;20547;-76
2022/11/25 03:20:37;;;;;;;11.83;5.30;;;4.00;99.90;;;;;;4121247;28;20546;-76
2022/11/25 03:22:39;;;;;;;12.43;5.53;;;3.90;99.90;;;;;;4131947;28;20731;-76
2022/11/25 03:24:41;;;;;;;12.90;5.33;;;3.90;99.90;;;;;;4124038;28;20477;-76
2022/11/25 03:26:43;;;;;;;10.30;5.13;;;3.90;99.90;;;;;;4131743;28;20541;-75
2022/11/25 03:28:45;;;;;;;14.03;5.63;;;3.90;99.90;;;;;;4132044;28;20449;-76
2022/11/25 03:30:48;;;;;;;13.20;6.00;;;3.90;99.90;;;;;;4128438;28;20487;-76
2022/11/25 03:32:50;;;;;;;14.40;6.23;;;3.90;99.90;;;;;;4127934;28;20991;-75
2022/11/25 03:34:52;;;;;;;10.87;5.30;;;3.90;99.90;;;;;;4132115;28;20505;-75
2022/11/25 03:36:54;;;;;;;12.97;5.60;;;3.90;99.90;;;;;;4132022;28;20862;-75
2022/11/25 03:38:56;;;;;;;13.07;5.60;;;3.90;99.90;;;;;;4130899;28;20460;-75
2022/11/25 03:40:58;;;;;;;8.87;5.30;;;3.90;99.90;;;;;;4129896;28;20453;-76
2022/11/25 03:43:00;;;;;;;10.23;4.70;;;4.00;99.90;;;;;;4135251;28;20557;-75
2022/11/25 03:45:02;;;;;;;12.07;5.30;;;3.80;99.90;;;;;;4126072;28;20452;-76
2022/11/25 03:47:05;;;;;;;12.27;5.10;;;3.80;99.90;;;;;;4135499;28;20472;-76
2022/11/25 03:49:07;;;;;;;10.17;5.27;;;3.70;99.90;;;;;;4128987;28;20474;-76
2022/11/25 03:51:09;;;;;;;11.30;5.30;;;3.70;99.90;;;;;;4128391;28;20483;-76
2022/11/25 03:53:11;;;;;;;8.97;4.70;;;3.70;99.90;;;;;;4130315;28;20527;-76
2022/11/25 03:55:13;;;;;;;11.57;4.80;;;4.30;99.90;;;;;;4132538;28;20530;-76
2022/11/25 03:57:15;;;;;;;12.00;5.00;;;3.70;99.90;;;;;;4127974;28;20468;-76
2022/11/25 03:59:17;;;;;;;12.60;5.90;;;3.60;99.90;;;;;;4125099;28;20464;-76
2022/11/25 04:01:19;;;;;;;9.80;4.50;;;3.50;99.90;;;;;;4114036;28;20814;-76
2022/11/25 04:03:23;;;;;;;9.37;4.73;;;3.60;99.90;;;;;;4132182;28;20540;-77
2022/11/25 04:05:25;;;;;;;8.27;4.73;;;3.60;99.90;;;;;;4130819;28;20496;-76
2022/11/25 04:07:27;;;;;;;12.23;4.60;;;3.60;99.90;;;;;;4129888;28;20460;-76
2022/11/25 04:09:29;;;;;;;11.43;5.00;;;3.50;99.90;;;;;;4130154;28;20446;-75
2022/11/25 04:13:46;;;;;;;8.17;4.40;;;3.40;99.90;;;;;;4130001;28;20502;-77
2022/11/25 04:15:50;;;;;;;14.20;5.67;;;3.40;99.90;;;;;;4131226;28;20451;-75
2022/11/25 04:17:54;;;;;;;10.47;4.73;;;3.40;99.90;;;;;;4122757;28;20446;-76
2022/11/25 04:19:58;;;;;;;12.40;5.37;;;3.40;99.90;;;;;;4116611;28;20449;-76
2022/11/25 04:22:00;;;;;;;12.50;5.63;;;3.40;99.90;;;;;;4130246;28;20456;-75
2022/11/25 04:24:02;;;;;;;13.80;5.07;;;3.40;99.90;;;;;;4125344;28;20457;-76
2022/11/25 04:26:04;;;;;;;10.87;5.10;;;3.30;99.90;;;;;;4127182;28;20453;-75
2022/11/25 04:28:06;;;;;;;15.47;5.17;;;3.30;99.90;;;;;;4117119;28;20484;-75
2022/11/25 04:30:09;;;;;;;13.67;5.87;;;3.30;99.90;;;;;;4119561;28;20540;-76
2022/11/25 04:32:11;;;;;;;11.67;5.60;;;3.30;99.90;;;;;;4135269;28;20614;-75
2022/11/25 04:34:13;;;;;;;10.13;5.20;;;3.30;99.90;;;;;;4128862;28;20448;-75
2022/11/25 04:36:17;;;;;;;13.87;5.97;;;3.30;99.90;;;;;;4134798;28;20514;-77
2022/11/25 04:38:19;;;;;;;16.50;5.97;;;3.40;99.90;;;;;;4133233;28;20491;-76
2022/11/25 04:40:21;;;;;;;13.77;5.60;;;3.40;99.90;;;;;;4125790;28;21244;-76
2022/11/25 04:42:31;;;;;;;13.23;6.00;;;3.20;99.90;;;;;;4115960;28;20476;-76
2022/11/25 04:44:33;;;;;;;12.60;5.63;;;3.20;99.90;;;;;;4135621;28;20455;-76
2022/11/25 04:46:40;;;;;;;13.40;5.33;;;3.20;99.90;;;;;;4138903;28;20520;-76
2022/11/25 04:48:42;;;;;;;15.13;5.93;;;3.20;99.90;;;;;;4138058;28;20463;-75
2022/11/25 04:50:44;;;;;;;12.90;5.80;;;3.20;99.90;;;;;;4134983;28;20543;-76
2022/11/25 04:52:47;;;;;;;10.97;5.37;;;3.20;99.90;;;;;;4135145;28;20531;-75
2022/11/25 04:54:49;;;;;;;16.77;6.50;;;3.10;99.90;;;;;;4125027;28;20528;-76
2022/11/25 04:56:51;;;;;;;11.50;5.23;;;3.20;99.90;;;;;;4131530;28;20468;-75
2022/11/25 05:01:21;;;;;;;13.93;5.77;;;3.10;99.90;;;;;;4108771;28;20854;-76
2022/11/25 05:03:23;;;;;;;10.97;5.00;;;3.10;99.90;;;;;;4124427;28;20468;-75
2022/11/25 05:05:25;;;;;;;10.23;5.10;;;3.10;99.90;;;;;;4130030;28;20452;-75
2022/11/25 05:07:28;;;;;;;13.67;5.27;;;3.30;99.90;;;;;;4132742;28;20527;-75
2022/11/25 05:09:31;;;;;;;10.30;5.00;;;3.10;99.90;;;;;;4132120;28;20817;-75
2022/11/25 05:11:33;;;;;;;10.67;4.83;;;3.00;99.90;;;;;;4126221;28;20486;-75
2022/11/25 05:13:35;;;;;;;14.77;5.37;;;3.10;99.90;;;;;;4127212;28;20495;-76
2022/11/25 05:15:37;;;;;;;12.53;5.63;;;3.10;99.90;;;;;;4129644;28;20448;-75
2022/11/25 05:17:40;;;;;;;10.80;6.00;;;3.10;99.90;;;;;;4128439;28;21021;-76
2022/11/25 05:19:42;;;;;;;18.23;5.10;;;3.00;99.90;;;;;;4118622;28;20496;-76
2022/11/25 05:21:44;;;;;;;10.00;5.33;;;3.00;99.90;;;;;;4134201;28;20463;-75
2022/11/25 05:23:46;;;;;;;12.70;5.57;;;3.20;99.90;;;;;;4130572;28;20479;-76
2022/11/25 05:25:49;;;;;;;13.73;5.60;;;3.00;99.90;;;;;;4130270;28;20456;-76
2022/11/25 05:27:51;;;;;;;12.23;6.03;;;3.00;99.90;;;;;;4111807;28;20489;-76
2022/11/25 05:29:53;;;;;;;16.90;6.20;;;3.50;99.90;;;;;;4127770;28;20452;-75
2022/11/25 05:31:55;;;;;;;15.87;6.07;;;3.00;99.90;;;;;;4131542;28;20532;-76
2022/11/25 05:34:00;;;;;;;13.23;5.63;;;3.00;99.90;;;;;;4131005;28;20445;-75
2022/11/25 05:36:04;;;;;;;18.17;5.93;;;3.00;99.90;;;;;;4135810;28;20461;-75
2022/11/25 05:38:06;;;;;;;11.77;5.67;;;3.00;99.90;;;;;;4140464;28;20463;-75
2022/11/25 05:40:08;;;;;;;10.37;5.43;;;3.00;99.90;;;;;;4133572;28;20452;-75
2022/11/25 05:42:12;;;;;;;11.53;5.30;;;2.90;99.90;;;;;;4128137;28;20483;-75
2022/11/25 05:44:14;;;;;;;17.77;5.80;;;2.90;99.90;;;;;;4130578;28;20449;-75
2022/11/25 05:46:16;;;;;;;21.70;6.60;;;2.90;99.90;;;;;;4131183;28;20463;-75
2022/11/25 05:48:18;;;;;;;15.67;6.53;;;2.90;99.90;;;;;;4135312;28;20525;-75
2022/11/25 05:50:19;;;;;;;13.50;5.43;;;2.90;99.90;;;;;;4137954;28;20539;-75
2022/11/25 05:52:21;;;;;;;10.20;5.83;;;2.90;99.90;;;;;;4130915;28;20497;-75
2022/11/25 05:54:24;;;;;;;14.27;6.67;;;2.90;99.90;;;;;;4129517;28;20471;-74
2022/11/25 05:56:26;;;;;;;17.83;5.90;;;2.90;99.90;;;;;;4131047;28;20496;-75
2022/11/25 05:58:31;;;;;;;14.33;6.83;;;2.90;99.90;;;;;;4129370;28;20468;-74
2022/11/25 06:00:33;;;;;;;18.30;7.47;;;2.80;99.90;;;;;;4127652;28;20541;-78
2022/11/25 06:02:35;;;;;;;23.57;8.47;;;2.90;99.90;;;;;;4129886;28;20514;-74
2022/11/25 06:04:38;;;;;;;16.53;6.97;;;2.90;99.90;;;;;;4114609;28;20480;-77
2022/11/25 06:06:40;;;;;;;15.00;7.50;;;2.80;99.90;;;;;;4126709;28;20464;-74
2022/11/25 06:08:42;;;;;;;15.47;6.63;;;3.50;99.90;;;;;;4129167;28;20491;-74
2022/11/25 06:10:52;;;;;;;13.73;6.80;;;2.80;99.90;;;;;;4126164;28;21201;-74
2022/11/25 06:13:00;;;;;;;17.73;7.33;;;2.90;99.90;;;;;;4129519;28;20490;-74
2022/11/25 06:15:04;;;;;;;14.33;7.47;;;2.80;99.90;;;;;;4129035;28;20447;-74
2022/11/25 06:17:06;;;;;;;19.80;6.83;;;2.90;99.90;;;;;;4124755;28;20486;-75
2022/11/25 06:19:08;;;;;;;14.03;5.93;;;2.80;99.90;;;;;;4121801;28;20460;-76
2022/11/25 06:21:11;;;;;;;18.80;7.50;;;2.70;99.90;;;;;;4125135;28;20451;-76
2022/11/25 06:23:13;;;;;;;12.87;6.60;;;2.90;99.90;;;;;;4120705;28;20467;-75
2022/11/25 06:25:15;;;;;;;16.37;7.33;;;2.70;99.90;;;;;;4117707;28;20497;-75
2022/11/25 06:27:17;;;;;;;15.00;7.03;;;2.70;99.90;;;;;;4121159;28;20483;-75
2022/11/25 06:29:19;;;;;;;18.23;6.97;;;2.70;99.90;;;;;;4120386;28;21181;-75
2022/11/25 06:31:25;;;;;;;34.37;14.67;;;2.70;99.90;;;;;;4120671;28;20909;-76
2022/11/25 06:33:39;;;;;;;25.50;11.40;;;2.70;99.90;;;;;;4125140;28;20491;-74
2022/11/25 06:35:45;;;;;;;23.40;9.07;;;2.70;99.90;;;;;;4126866;28;20486;-74
2022/11/25 06:37:51;;;;;;;19.80;8.67;;;2.70;99.90;;;;;;4128555;28;20964;-74
2022/11/25 06:40:02;;;;;;;18.87;7.90;;;2.70;99.90;;;;;;4131821;28;20474;-75
2022/11/25 06:42:07;;;;;;;11.13;6.57;;;2.70;99.90;;;;;;4109817;28;20852;-74
2022/11/25 06:44:23;;;;;;;19.57;7.53;;;2.70;99.90;;;;;;4109277;28;20466;-75
2022/11/25 06:46:34;;;;;;;20.73;7.73;;;2.70;99.90;;;;;;4126177;28;20470;-74
2022/11/25 06:48:46;;;;;;;21.43;7.93;;;2.70;99.90;;;;;;4114368;28;21050;-74
2022/11/25 06:50:56;;;;;;;18.07;7.37;;;2.70;99.90;;;;;;4106433;28;20473;-75
2022/11/25 06:53:01;;;;;;;18.00;7.33;;;2.70;99.90;;;;;;4118455;28;20523;-74
2022/11/25 06:55:03;;;;;;;20.43;7.60;;;2.70;99.90;;;;;;4107935;28;20452;-76
2022/11/25 06:57:04;;;;;;;21.13;7.70;;;2.70;99.90;;;;;;4126082;28;20482;-74
2022/11/25 06:59:10;;;;;;;23.13;7.17;;;2.70;99.90;;;;;;4119743;28;20502;-76
2022/11/25 07:01:15;;;;;;;15.67;6.80;;;2.70;99.90;;;;;;4119158;28;20433;-75
2022/11/25 07:03:18;;;;;;;21.67;7.37;;;2.70;99.90;;;;;;4120772;28;20547;-75
2022/11/25 07:05:20;;;;;;;17.60;7.37;;;2.70;99.90;;;;;;4125947;28;20451;-75
2022/11/25 07:07:22;;;;;;;18.43;7.40;;;3.70;99.90;;;;;;4123299;28;21014;-75
2022/11/25 07:09:24;;;;;;;20.53;7.53;;;2.70;99.90;;;;;;4116117;28;20449;-75
2022/11/25 07:11:29;;;;;;;20.20;7.53;;;2.70;99.90;;;;;;4120880;28;20491;-75
2022/11/25 07:13:31;;;;;;;25.63;9.63;;;2.70;99.90;;;;;;4125361;28;20487;-75
2022/11/25 07:15:34;;;;;;;22.43;8.53;;;2.70;99.90;;;;;;4124745;28;20500;-75
2022/11/25 07:17:36;;;;;;;19.67;7.27;;;2.80;99.90;;;;;;4118881;28;20457;-76
2022/11/25 07:19:40;;;;;;;22.50;8.03;;;3.10;99.90;;;;;;4108694;28;20468;-76
2022/11/25 07:21:44;;;;;;;15.40;7.70;;;2.80;99.90;;;;;;4118285;28;20889;-76
2022/11/25 07:23:47;;;;;;;19.27;7.87;;;2.80;99.90;;;;;;4112697;28;20484;-76
2022/11/25 07:25:49;;;;;;;37.97;8.23;;;2.80;99.90;;;;;;4123683;28;20515;-75
2022/11/25 07:27:51;;;;;;;17.27;7.13;;;2.80;99.90;;;;;;4126413;28;20464;-75
2022/11/25 07:29:53;;;;;;;29.27;8.57;;;2.80;99.90;;;;;;4117707;28;20585;-76
2022/11/25 07:31:58;;;;;;;23.43;7.77;;;2.80;99.90;;;;;;4120006;28;20476;-75
2022/11/25 07:34:02;;;;;;;15.60;6.90;;;2.90;99.90;;;;;;4117494;28;20447;-75
2022/11/25 07:36:07;;;;;;;21.03;8.57;;;2.90;99.90;;;;;;4120440;28;20490;-75
2022/11/25 07:38:09;;;;;;;20.20;7.83;;;2.90;99.90;;;;;;4125694;28;20463;-75
2022/11/25 07:40:12;;;;;;;18.47;7.93;;;2.90;99.90;;;;;;4113574;28;21002;-75
2022/11/25 07:42:14;;;;;;;20.30;7.70;;;2.90;99.90;;;;;;4121006;28;20490;-76
2022/11/25 07:44:18;;;;;;;19.77;7.63;;;2.90;99.90;;;;;;4121682;28;20465;-75
2022/11/25 07:46:25;;;;;;;24.13;8.30;;;2.90;99.90;;;;;;4111564;28;20550;-75
2022/11/25 07:48:26;;;;;;;21.50;7.60;;;3.00;99.90;;;;;;4100982;28;20497;-76
2022/11/25 07:50:28;;;;;;;23.63;7.90;;;3.00;99.90;;;;;;4124147;28;20453;-75
2022/11/25 07:52:32;;;;;;;21.07;8.67;;;3.00;99.90;;;;;;4127922;28;20533;-76
2022/11/25 07:54:34;;;;;;;18.73;7.57;;;3.00;99.90;;;;;;4119017;28;20456;-76
2022/11/25 07:56:37;;;;;;;21.63;7.77;;;3.10;99.90;;;;;;4126269;28;20457;-76
2022/11/25 07:58:39;;;;;;;23.93;9.40;;;3.10;99.90;;;;;;4109909;28;20984;-75
2022/11/25 08:00:41;;;;;;;28.57;11.67;;;3.20;99.90;;;;;;4125082;28;21023;-75
2022/11/25 08:02:43;;;;;;;25.63;10.30;;;3.20;99.90;;;;;;4122636;28;20927;-76
2022/11/25 08:04:45;;;;;;;23.10;8.60;;;3.20;99.90;;;;;;4101717;28;20562;-76
2022/11/25 08:06:51;;;;;;;22.97;8.80;;;3.30;99.90;;;;;;4120293;28;20550;-75
2022/11/25 08:08:56;;;;;;;23.90;9.03;;;3.30;99.90;;;;;;4122376;28;20484;-76
2022/11/25 08:11:00;;;;;;;25.50;8.77;;;3.30;99.90;;;;;;4133286;28;20467;-75
2022/11/25 08:13:03;;;;;;;18.97;7.97;;;3.30;99.90;;;;;;4101609;28;20509;-75
2022/11/25 08:15:06;;;;;;;21.67;8.63;;;3.40;99.90;;;;;;4118994;28;20452;-75
2022/11/25 08:17:08;;;;;;;22.03;8.90;;;3.40;99.90;;;;;;4125493;28;20479;-75
2022/11/25 08:19:16;;;;;;;23.80;8.60;;;3.40;99.90;;;;;;4131205;28;20507;-75
2022/11/25 08:21:19;;;;;;;21.93;8.83;;;3.40;99.90;;;;;;4114939;28;20488;-75
2022/11/25 08:23:21;;;;;;;28.13;9.20;;;3.40;99.90;;;;;;4123105;28;20475;-75
2022/11/25 08:25:28;;;;;;;21.60;9.00;;;3.50;99.90;;;;;;4131671;28;20542;-75
2022/11/25 08:27:31;;;;;;;25.90;9.10;;;3.40;99.90;;;;;;4116287;28;20464;-75
2022/11/25 08:29:33;;;;;;;18.83;8.70;;;3.50;99.90;;;;;;4134867;28;20480;-75
2022/11/25 08:31:37;;;;;;;27.80;9.13;;;3.50;99.90;;;;;;4131836;28;20483;-76
2022/11/25 08:33:39;;;;;;;31.23;9.60;;;3.50;99.90;;;;;;4135436;28;20466;-76
2022/11/25 08:35:41;;;;;;;18.23;8.93;;;3.50;99.90;;;;;;4114482;28;20469;-75
2022/11/25 08:37:43;;;;;;;23.03;9.73;;;3.50;99.90;;;;;;4116215;28;20539;-75
2022/11/25 08:39:46;;;;;;;19.43;8.70;;;3.50;99.90;;;;;;4115828;28;20468;-75
2022/11/25 08:41:49;;;;;;;21.23;9.33;;;3.50;99.90;;;;;;4116795;28;20460;-75
2022/11/25 08:43:52;;;;;;;24.17;9.53;;;3.70;99.90;;;;;;4128256;28;20455;-75
2022/11/25 08:45:54;;;;;;;25.70;10.10;;;3.70;99.90;;;;;;4131672;28;20479;-75
2022/11/25 08:47:56;;;;;;;20.63;9.40;;;3.70;99.90;;;;;;4131542;28;20480;-76
2022/11/25 08:49:58;;;;;;;21.00;9.57;;;3.70;99.90;;;;;;4130582;28;20483;-76
2022/11/25 08:52:00;;;;;;;23.53;9.30;;;3.80;99.90;;;;;;4129700;28;20496;-77
2022/11/25 08:54:03;;;;;;;23.13;10.27;;;3.80;99.90;;;;;;4114898;28;20464;-75
2022/11/25 08:56:05;;;;;;;24.53;10.03;;;3.90;99.90;;;;;;4112857;28;20483;-75
2022/11/25 08:58:12;;;;;;;23.57;10.30;;;3.90;99.90;;;;;;4112661;28;20473;-76
2022/11/25 09:00:15;;;;;;;26.47;10.07;;;4.10;99.90;;;;;;4128393;28;20459;-76
2022/11/25 09:02:18;;;;;;;21.00;9.20;;;4.10;99.90;;;;;;4129662;28;20476;-76
2022/11/25 09:04:20;;;;;;;22.47;9.50;;;4.10;99.90;;;;;;4129613;28;20469;-75
2022/11/25 09:06:26;;;;;;;25.03;10.40;;;4.20;99.90;;;;;;4130153;28;20462;-76
2022/11/25 09:08:29;;;;;;;21.63;9.43;;;4.60;99.90;;;;;;4125951;28;20509;-75
2022/11/25 09:10:31;;;;;;;21.23;9.37;;;4.30;99.90;;;;;;4128981;28;20479;-75
2022/11/25 09:12:39;;;;;;;21.37;10.27;;;4.30;99.90;;;;;;4131517;28;20499;-75
2022/11/25 09:14:42;;;;;;;24.97;10.20;;;4.40;99.90;;;;;;4118390;28;20525;-75
2022/11/25 09:16:44;;;;;;;27.47;10.23;;;4.50;99.90;;;;;;4126769;28;21121;-75
2022/11/25 09:18:46;;;;;;;23.47;10.13;;;4.50;99.90;;;;;;4129432;28;20452;-75
2022/11/25 09:20:48;;;;;;;26.23;10.27;;;4.60;99.90;;;;;;4127537;28;20444;-75
2022/11/25 09:22:50;;;;;;;17.90;9.43;;;4.60;99.90;;;;;;4128762;28;20492;-75
2022/11/25 09:24:52;;;;;;;17.67;9.50;;;4.70;99.90;;;;;;4126627;28;20463;-76
2022/11/25 09:26:54;;;;;;;23.67;9.77;;;4.70;99.90;;;;;;4125112;28;20516;-76
2022/11/25 09:29:04;;;;;;;25.27;9.57;;;4.80;99.90;;;;;;4108790;28;20907;-75
2022/11/25 09:31:18;;;;;;;23.97;9.27;;;4.80;99.90;;;;;;4109442;28;20469;-75
2022/11/25 09:33:23;;;;;;;21.03;9.97;;;5.00;99.90;;;;;;4110708;28;20483;-75
2022/11/25 09:35:26;;;;;;;25.17;11.27;;;4.90;99.90;;;;;;4105778;28;20460;-75
2022/11/25 09:37:27;;;;;;;25.93;9.70;;;5.00;99.90;;;;;;4123933;28;20468;-76
2022/11/25 09:39:29;;;;;;;21.37;9.57;;;5.00;99.90;;;;;;4127020;28;20456;-75
2022/11/25 09:46:54;;;;;;;15.93;8.30;;;5.20;99.90;;;;;;4123556;28;20463;-75
2022/11/25 09:49:03;;;;;;;18.13;9.20;;;5.30;99.90;;;;;;4123010;28;20480;-75
2022/11/25 09:51:16;;;;;;;16.73;8.53;;;5.30;99.90;;;;;;4122780;28;20793;-75
2022/11/25 09:53:34;;;;;;;17.17;8.90;;;5.40;99.90;;;;;;4104256;28;20524;-76
2022/11/25 09:55:53;;;;;;;20.33;9.50;;;5.40;99.90;;;;;;4126015;28;21434;-76
2022/11/25 09:58:10;;;;;;;18.27;9.30;;;5.50;99.90;;;;;;4110610;28;20466;-77
2022/11/25 10:00:19;;;;;;;17.77;8.57;;;5.50;99.90;;;;;;4125149;28;20520;-76
2022/11/25 10:02:27;;;;;;;16.27;9.00;;;5.60;99.90;;;;;;4114744;28;20529;-76
2022/11/25 10:04:38;;;;;;;16.97;9.37;;;5.60;99.90;;;;;;4123888;28;20441;-76
2022/11/25 10:06:45;;;;;;;19.27;9.10;;;5.70;99.90;;;;;;4105906;28;20488;-76
2022/11/25 10:08:50;;;;;;;16.50;8.60;;;5.70;99.90;;;;;;4108584;28;20459;-76
2022/11/25 10:10:59;;;;;;;17.77;8.90;;;5.70;99.90;;;;;;4123423;28;20542;-76
2022/11/25 10:13:05;;;;;;;20.60;8.83;;;5.80;99.90;;;;;;4119534;28;20494;-76
2022/11/25 10:15:17;;;;;;;17.67;8.80;;;5.80;99.90;;;;;;4121068;28;20469;-75
2022/11/25 10:17:31;;;;;;;21.83;8.63;;;5.90;99.90;;;;;;4121623;28;20470;-76
2022/11/25 10:19:43;;;;;;;15.53;7.97;;;5.90;99.90;;;;;;4118167;28;20453;-76
2022/11/25 10:21:46;;;;;;;19.33;9.03;;;6.00;99.90;;;;;;4104085;28;21349;-76
2022/11/25 10:23:48;;;;;;;15.73;7.93;;;6.00;99.90;;;;;;4122628;28;20480;-76
2022/11/25 10:25:57;;;;;;;14.47;7.70;;;6.10;99.90;;;;;;4124957;28;20522;-75
2022/11/25 10:28:01;;;;;;;19.90;8.13;;;6.10;99.90;;;;;;4111644;28;20516;-75
2022/11/25 10:30:13;;;;;;;15.50;7.27;;;6.20;99.90;;;;;;4133404;28;20463;-76
2022/11/25 10:32:22;;;;;;;15.43;7.70;;;6.20;99.90;;;;;;4124165;28;20502;-76
2022/11/25 10:34:32;;;;;;;12.60;7.70;;;6.30;99.90;;;;;;4123439;28;20817;-76
2022/11/25 10:36:38;;;;;;;15.10;7.50;;;6.40;99.90;;;;;;4122551;28;20453;-76
2022/11/25 10:38:56;;;;;;;14.73;7.60;;;6.40;99.90;;;;;;4119746;28;20968;-76
2022/11/25 10:41:00;;;;;;;18.43;7.17;;;6.50;99.90;;;;;;4126637;28;20494;-76
2022/11/25 10:43:11;;;;;;;13.77;6.37;;;6.60;99.90;;;;;;4114708;28;20479;-76
2022/11/25 10:45:13;;;;;;;15.33;6.67;;;6.60;99.90;;;;;;4128275;28;20441;-77
2022/11/25 10:47:35;;;;;;;14.03;6.13;;;6.70;99.90;;;;;;4126397;28;20457;-76
2022/11/25 10:49:46;;;;;;;17.27;6.33;;;6.70;99.90;;;;;;4127481;28;21077;-76
2022/11/25 10:51:50;;;;;;;13.63;6.13;;;6.80;99.90;;;;;;4105838;28;21034;-76
2022/11/25 10:56:59;;;;;;;11.13;5.50;;;7.00;99.90;;;;;;4107963;28;20452;-75
2022/11/25 10:59:16;;;;;;;12.80;5.77;;;7.10;99.90;;;;;;4117224;28;20496;-75
2022/11/25 11:01:24;;;;;;;9.80;5.30;;;7.20;99.90;;;;;;4113150;28;20456;-75
2022/11/25 11:03:26;;;;;;;13.97;5.70;;;7.20;99.90;;;;;;4107980;28;21033;-76